sensor_id;sensor_type;location;lat;lon;timestamp;P1;durP1;ratioP1;P2;durP2;ratioP2
47715;SDS011;33476;50.984;3.538;2024-02-04T00:00:28;8.98;;;2.67;;
47715;SDS011;33476;50.984;3.538;2024-02-04T00:02:54;10.35;;;2.92;;
47715;SDS011;33476;50.984;3.538;2024-02-04T00:05:19;9.13;;;2.72;;
47715;SDS011;33476;50.984;3.538;2024-02-04T00:07:45;11.07;;;2.78;;
47715;SDS011;33476;50.984;3.538;2024-02-04T00:10:10;9.70;;;2.45;;
47715;SDS011;33476;50.984;3.538;2024-02-04T00:12:36;14.30;;;3.75;;
47715;SDS011;33476;50.984;3.538;2024-02-04T00:15:02;10.60;;;2.92;;
47715;SDS011;33476;50.984;3.538;2024-02-04T00:17:29;14.63;;;2.92;;
47715;SDS011;33476;50.984;3.538;2024-02-04T00:19:57;14.13;;;2.63;;
47715;SDS011;33476;50.984;3.538;2024-02-04T00:22:23;10.75;;;3.03;;
47715;SDS011;33476;50.984;3.538;2024-02-04T00:24:49;10.93;;;3.25;;
47715;SDS011;33476;50.984;3.538;2024-02-04T00:27:14;8.27;;;2.58;;
47715;SDS011;33476;50.984;3.538;2024-02-04T00:29:39;13.55;;;3.40;;
47715;SDS011;33476;50.984;3.538;2024-02-04T00:32:05;14.82;;;3.33;;
47715;SDS011;33476;50.984;3.538;2024-02-04T00:34:30;11.23;;;3.10;;
47715;SDS011;33476;50.984;3.538;2024-02-04T00:36:56;16.52;;;3.67;;
47715;SDS011;33476;50.984;3.538;2024-02-04T00:39:21;14.27;;;3.70;;
47715;SDS011;33476;50.984;3.538;2024-02-04T00:41:46;13.68;;;3.97;;
47715;SDS011;33476;50.984;3.538;2024-02-04T00:44:12;15.95;;;3.88;;
47715;SDS011;33476;50.984;3.538;2024-02-04T00:46:37;16.27;;;3.83;;
47715;SDS011;33476;50.984;3.538;2024-02-04T00:49:02;19.38;;;3.65;;
47715;SDS011;33476;50.984;3.538;2024-02-04T00:51:28;11.50;;;3.80;;
47715;SDS011;33476;50.984;3.538;2024-02-04T00:53:53;17.95;;;4.15;;
47715;SDS011;33476;50.984;3.538;2024-02-04T00:56:19;21.98;;;4.10;;
47715;SDS011;33476;50.984;3.538;2024-02-04T00:58:44;19.23;;;4.38;;
47715;SDS011;33476;50.984;3.538;2024-02-04T01:01:10;16.58;;;4.35;;
47715;SDS011;33476;50.984;3.538;2024-02-04T01:03:35;17.63;;;4.03;;
47715;SDS011;33476;50.984;3.538;2024-02-04T01:06:00;16.00;;;4.80;;
47715;SDS011;33476;50.984;3.538;2024-02-04T01:08:26;12.27;;;3.65;;
47715;SDS011;33476;50.984;3.538;2024-02-04T01:10:51;17.92;;;4.32;;
47715;SDS011;33476;50.984;3.538;2024-02-04T01:13:17;18.45;;;4.22;;
47715;SDS011;33476;50.984;3.538;2024-02-04T01:15:42;16.48;;;4.40;;
47715;SDS011;33476;50.984;3.538;2024-02-04T01:18:08;19.67;;;4.75;;
47715;SDS011;33476;50.984;3.538;2024-02-04T01:20:34;17.95;;;4.43;;
47715;SDS011;33476;50.984;3.538;2024-02-04T01:22:59;14.02;;;4.15;;
47715;SDS011;33476;50.984;3.538;2024-02-04T01:25:25;20.70;;;4.97;;
47715;SDS011;33476;50.984;3.538;2024-02-04T01:27:50;18.90;;;4.95;;
47715;SDS011;33476;50.984;3.538;2024-02-04T01:30:15;21.67;;;5.07;;
47715;SDS011;33476;50.984;3.538;2024-02-04T01:32:41;18.63;;;5.00;;
47715;SDS011;33476;50.984;3.538;2024-02-04T01:35:06;21.77;;;4.97;;
47715;SDS011;33476;50.984;3.538;2024-02-04T01:37:32;16.92;;;4.97;;
47715;SDS011;33476;50.984;3.538;2024-02-04T01:39:58;17.48;;;4.57;;
47715;SDS011;33476;50.984;3.538;2024-02-04T01:42:23;22.55;;;5.13;;
47715;SDS011;33476;50.984;3.538;2024-02-04T01:44:48;15.40;;;4.55;;
47715;SDS011;33476;50.984;3.538;2024-02-04T01:47:14;22.20;;;4.95;;
47715;SDS011;33476;50.984;3.538;2024-02-04T01:49:39;14.57;;;4.65;;
47715;SDS011;33476;50.984;3.538;2024-02-04T01:52:05;19.30;;;4.60;;
47715;SDS011;33476;50.984;3.538;2024-02-04T01:54:32;14.18;;;4.47;;
47715;SDS011;33476;50.984;3.538;2024-02-04T01:56:58;21.58;;;3.63;;
47715;SDS011;33476;50.984;3.538;2024-02-04T01:59:26;18.95;;;4.82;;
47715;SDS011;33476;50.984;3.538;2024-02-04T02:01:55;22.63;;;4.55;;
47715;SDS011;33476;50.984;3.538;2024-02-04T02:04:27;14.90;;;3.85;;
47715;SDS011;33476;50.984;3.538;2024-02-04T02:06:53;21.77;;;4.43;;
47715;SDS011;33476;50.984;3.538;2024-02-04T02:09:19;16.73;;;3.50;;
47715;SDS011;33476;50.984;3.538;2024-02-04T02:11:46;13.93;;;4.00;;
47715;SDS011;33476;50.984;3.538;2024-02-04T02:14:16;14.82;;;3.08;;
47715;SDS011;33476;50.984;3.538;2024-02-04T02:16:44;15.95;;;3.70;;
47715;SDS011;33476;50.984;3.538;2024-02-04T02:21:47;18.15;;;3.88;;
47715;SDS011;33476;50.984;3.538;2024-02-04T02:26:50;14.20;;;3.50;;
47715;SDS011;33476;50.984;3.538;2024-02-04T02:29:15;20.60;;;3.10;;
47715;SDS011;33476;50.984;3.538;2024-02-04T02:31:42;22.17;;;3.80;;
47715;SDS011;33476;50.984;3.538;2024-02-04T02:34:08;11.52;;;3.08;;
47715;SDS011;33476;50.984;3.538;2024-02-04T02:36:36;14.75;;;3.35;;
47715;SDS011;33476;50.984;3.538;2024-02-04T02:39:31;15.98;;;3.45;;
47715;SDS011;33476;50.984;3.538;2024-02-04T02:42:00;12.98;;;3.25;;
47715;SDS011;33476;50.984;3.538;2024-02-04T02:44:27;17.23;;;3.15;;
47715;SDS011;33476;50.984;3.538;2024-02-04T02:46:57;14.07;;;2.92;;
47715;SDS011;33476;50.984;3.538;2024-02-04T02:49:24;13.80;;;3.50;;
47715;SDS011;33476;50.984;3.538;2024-02-04T02:51:50;18.13;;;3.38;;
47715;SDS011;33476;50.984;3.538;2024-02-04T02:54:15;20.23;;;3.10;;
47715;SDS011;33476;50.984;3.538;2024-02-04T02:56:41;15.85;;;2.95;;
47715;SDS011;33476;50.984;3.538;2024-02-04T02:59:06;16.52;;;3.50;;
47715;SDS011;33476;50.984;3.538;2024-02-04T03:01:33;12.90;;;3.30;;
47715;SDS011;33476;50.984;3.538;2024-02-04T03:03:58;14.60;;;3.40;;
47715;SDS011;33476;50.984;3.538;2024-02-04T03:06:24;16.75;;;3.30;;
47715;SDS011;33476;50.984;3.538;2024-02-04T03:08:49;13.07;;;3.00;;
47715;SDS011;33476;50.984;3.538;2024-02-04T03:11:15;14.55;;;2.60;;
47715;SDS011;33476;50.984;3.538;2024-02-04T03:13:40;15.68;;;2.47;;
47715;SDS011;33476;50.984;3.538;2024-02-04T03:16:12;9.30;;;2.38;;
47715;SDS011;33476;50.984;3.538;2024-02-04T03:18:41;15.20;;;2.58;;
47715;SDS011;33476;50.984;3.538;2024-02-04T03:21:14;12.85;;;3.00;;
47715;SDS011;33476;50.984;3.538;2024-02-04T03:23:43;8.50;;;2.03;;
47715;SDS011;33476;50.984;3.538;2024-02-04T03:26:10;13.00;;;2.20;;
47715;SDS011;33476;50.984;3.538;2024-02-04T03:28:36;15.88;;;2.85;;
47715;SDS011;33476;50.984;3.538;2024-02-04T03:31:01;16.20;;;2.78;;
47715;SDS011;33476;50.984;3.538;2024-02-04T03:33:27;19.98;;;3.25;;
47715;SDS011;33476;50.984;3.538;2024-02-04T03:35:52;13.90;;;3.17;;
47715;SDS011;33476;50.984;3.538;2024-02-04T03:38:18;16.23;;;3.15;;
47715;SDS011;33476;50.984;3.538;2024-02-04T03:40:43;13.38;;;3.08;;
47715;SDS011;33476;50.984;3.538;2024-02-04T03:43:09;17.52;;;3.67;;
47715;SDS011;33476;50.984;3.538;2024-02-04T03:45:35;21.73;;;4.05;;
47715;SDS011;33476;50.984;3.538;2024-02-04T03:48:01;16.00;;;3.25;;
47715;SDS011;33476;50.984;3.538;2024-02-04T03:50:27;12.38;;;3.25;;
47715;SDS011;33476;50.984;3.538;2024-02-04T03:52:52;13.18;;;3.00;;
47715;SDS011;33476;50.984;3.538;2024-02-04T03:55:18;16.85;;;3.53;;
47715;SDS011;33476;50.984;3.538;2024-02-04T03:57:43;13.63;;;2.80;;
47715;SDS011;33476;50.984;3.538;2024-02-04T04:00:09;11.38;;;3.03;;
47715;SDS011;33476;50.984;3.538;2024-02-04T04:02:35;14.93;;;3.35;;
47715;SDS011;33476;50.984;3.538;2024-02-04T04:05:00;11.02;;;2.40;;
47715;SDS011;33476;50.984;3.538;2024-02-04T04:07:26;15.07;;;3.42;;
47715;SDS011;33476;50.984;3.538;2024-02-04T04:09:51;11.43;;;2.45;;
47715;SDS011;33476;50.984;3.538;2024-02-04T04:12:16;12.43;;;2.95;;
47715;SDS011;33476;50.984;3.538;2024-02-04T04:14:42;18.23;;;3.20;;
47715;SDS011;33476;50.984;3.538;2024-02-04T04:17:07;13.65;;;2.60;;
47715;SDS011;33476;50.984;3.538;2024-02-04T04:19:32;11.18;;;2.55;;
47715;SDS011;33476;50.984;3.538;2024-02-04T04:22:00;14.02;;;3.58;;
47715;SDS011;33476;50.984;3.538;2024-02-04T04:24:27;12.60;;;3.03;;
47715;SDS011;33476;50.984;3.538;2024-02-04T04:26:52;16.48;;;3.28;;
47715;SDS011;33476;50.984;3.538;2024-02-04T04:29:18;10.88;;;2.40;;
47715;SDS011;33476;50.984;3.538;2024-02-04T04:31:43;16.40;;;3.42;;
47715;SDS011;33476;50.984;3.538;2024-02-04T04:34:08;14.60;;;3.03;;
47715;SDS011;33476;50.984;3.538;2024-02-04T04:36:34;14.63;;;3.05;;
47715;SDS011;33476;50.984;3.538;2024-02-04T04:39:00;14.00;;;3.63;;
47715;SDS011;33476;50.984;3.538;2024-02-04T04:41:26;19.35;;;3.20;;
47715;SDS011;33476;50.984;3.538;2024-02-04T04:43:51;14.52;;;3.53;;
47715;SDS011;33476;50.984;3.538;2024-02-04T04:46:16;14.77;;;3.40;;
47715;SDS011;33476;50.984;3.538;2024-02-04T04:48:42;11.93;;;3.08;;
47715;SDS011;33476;50.984;3.538;2024-02-04T04:51:07;16.15;;;2.97;;
47715;SDS011;33476;50.984;3.538;2024-02-04T04:53:34;12.82;;;2.45;;
47715;SDS011;33476;50.984;3.538;2024-02-04T04:55:59;14.30;;;3.13;;
47715;SDS011;33476;50.984;3.538;2024-02-04T04:58:25;16.08;;;3.17;;
47715;SDS011;33476;50.984;3.538;2024-02-04T05:00:50;9.98;;;2.33;;
47715;SDS011;33476;50.984;3.538;2024-02-04T05:03:15;10.98;;;2.50;;
47715;SDS011;33476;50.984;3.538;2024-02-04T05:05:41;18.45;;;2.90;;
47715;SDS011;33476;50.984;3.538;2024-02-04T05:08:06;12.95;;;2.97;;
47715;SDS011;33476;50.984;3.538;2024-02-04T05:10:32;15.35;;;3.08;;
47715;SDS011;33476;50.984;3.538;2024-02-04T05:12:57;16.85;;;3.10;;
47715;SDS011;33476;50.984;3.538;2024-02-04T05:15:22;14.82;;;3.65;;
47715;SDS011;33476;50.984;3.538;2024-02-04T05:17:50;16.30;;;3.30;;
47715;SDS011;33476;50.984;3.538;2024-02-04T05:20:15;18.75;;;2.88;;
47715;SDS011;33476;50.984;3.538;2024-02-04T05:22:40;15.13;;;3.22;;
47715;SDS011;33476;50.984;3.538;2024-02-04T05:25:06;19.13;;;3.33;;
47715;SDS011;33476;50.984;3.538;2024-02-04T05:27:31;13.00;;;2.92;;
47715;SDS011;33476;50.984;3.538;2024-02-04T05:29:57;17.20;;;3.33;;
47715;SDS011;33476;50.984;3.538;2024-02-04T05:32:23;10.88;;;2.92;;
47715;SDS011;33476;50.984;3.538;2024-02-04T05:34:48;13.05;;;2.90;;
47715;SDS011;33476;50.984;3.538;2024-02-04T05:37:14;6.93;;;2.13;;
47715;SDS011;33476;50.984;3.538;2024-02-04T05:39:39;10.00;;;2.60;;
47715;SDS011;33476;50.984;3.538;2024-02-04T05:42:04;8.63;;;2.45;;
47715;SDS011;33476;50.984;3.538;2024-02-04T05:44:30;14.93;;;2.45;;
47715;SDS011;33476;50.984;3.538;2024-02-04T05:46:55;10.63;;;2.15;;
47715;SDS011;33476;50.984;3.538;2024-02-04T05:49:20;7.25;;;2.33;;
47715;SDS011;33476;50.984;3.538;2024-02-04T05:51:46;6.78;;;1.40;;
47715;SDS011;33476;50.984;3.538;2024-02-04T05:54:12;7.53;;;2.00;;
47715;SDS011;33476;50.984;3.538;2024-02-04T05:56:38;8.82;;;1.63;;
47715;SDS011;33476;50.984;3.538;2024-02-04T05:59:03;4.40;;;1.20;;
47715;SDS011;33476;50.984;3.538;2024-02-04T06:01:29;8.40;;;1.67;;
47715;SDS011;33476;50.984;3.538;2024-02-04T06:03:54;8.50;;;1.83;;
47715;SDS011;33476;50.984;3.538;2024-02-04T06:06:19;8.50;;;1.88;;
47715;SDS011;33476;50.984;3.538;2024-02-04T06:08:48;9.68;;;1.92;;
47715;SDS011;33476;50.984;3.538;2024-02-04T06:11:13;7.97;;;2.17;;
47715;SDS011;33476;50.984;3.538;2024-02-04T06:13:40;7.75;;;1.30;;
47715;SDS011;33476;50.984;3.538;2024-02-04T06:16:07;6.85;;;1.67;;
47715;SDS011;33476;50.984;3.538;2024-02-04T06:18:32;4.22;;;1.10;;
47715;SDS011;33476;50.984;3.538;2024-02-04T06:20:58;7.43;;;0.95;;
47715;SDS011;33476;50.984;3.538;2024-02-04T06:23:23;5.90;;;1.45;;
47715;SDS011;33476;50.984;3.538;2024-02-04T06:25:48;7.57;;;1.48;;
47715;SDS011;33476;50.984;3.538;2024-02-04T06:28:14;3.80;;;0.88;;
47715;SDS011;33476;50.984;3.538;2024-02-04T06:30:39;2.63;;;1.00;;
47715;SDS011;33476;50.984;3.538;2024-02-04T06:33:05;4.28;;;1.30;;
47715;SDS011;33476;50.984;3.538;2024-02-04T06:35:31;5.80;;;1.23;;
47715;SDS011;33476;50.984;3.538;2024-02-04T06:37:57;4.95;;;1.25;;
47715;SDS011;33476;50.984;3.538;2024-02-04T06:40:22;6.88;;;1.40;;
47715;SDS011;33476;50.984;3.538;2024-02-04T06:42:47;7.35;;;1.10;;
47715;SDS011;33476;50.984;3.538;2024-02-04T06:45:13;7.03;;;1.05;;
47715;SDS011;33476;50.984;3.538;2024-02-04T06:47:38;6.22;;;1.42;;
47715;SDS011;33476;50.984;3.538;2024-02-04T06:50:04;7.55;;;0.90;;
47715;SDS011;33476;50.984;3.538;2024-02-04T06:52:30;4.13;;;0.95;;
47715;SDS011;33476;50.984;3.538;2024-02-04T06:54:56;3.95;;;0.68;;
47715;SDS011;33476;50.984;3.538;2024-02-04T06:57:21;7.65;;;1.15;;
47715;SDS011;33476;50.984;3.538;2024-02-04T06:59:47;6.75;;;1.45;;
47715;SDS011;33476;50.984;3.538;2024-02-04T07:02:12;4.03;;;1.00;;
47715;SDS011;33476;50.984;3.538;2024-02-04T07:04:38;7.05;;;1.33;;
47715;SDS011;33476;50.984;3.538;2024-02-04T07:07:03;7.57;;;1.00;;
47715;SDS011;33476;50.984;3.538;2024-02-04T07:09:28;3.15;;;0.80;;
47715;SDS011;33476;50.984;3.538;2024-02-04T07:11:54;5.68;;;0.93;;
47715;SDS011;33476;50.984;3.538;2024-02-04T07:14:19;4.70;;;0.70;;
47715;SDS011;33476;50.984;3.538;2024-02-04T07:16:45;6.18;;;1.05;;
47715;SDS011;33476;50.984;3.538;2024-02-04T07:19:10;7.35;;;1.20;;
47715;SDS011;33476;50.984;3.538;2024-02-04T07:21:35;5.40;;;0.93;;
47715;SDS011;33476;50.984;3.538;2024-02-04T07:24:01;6.25;;;0.90;;
47715;SDS011;33476;50.984;3.538;2024-02-04T07:26:26;2.88;;;0.90;;
47715;SDS011;33476;50.984;3.538;2024-02-04T07:28:52;4.18;;;0.77;;
47715;SDS011;33476;50.984;3.538;2024-02-04T07:31:18;3.55;;;0.40;;
47715;SDS011;33476;50.984;3.538;2024-02-04T07:33:44;4.22;;;0.85;;
47715;SDS011;33476;50.984;3.538;2024-02-04T07:36:10;6.75;;;0.93;;
47715;SDS011;33476;50.984;3.538;2024-02-04T07:38:35;3.63;;;0.65;;
47715;SDS011;33476;50.984;3.538;2024-02-04T07:41:01;5.93;;;0.50;;
47715;SDS011;33476;50.984;3.538;2024-02-04T07:43:26;4.50;;;0.73;;
47715;SDS011;33476;50.984;3.538;2024-02-04T07:45:51;5.43;;;0.52;;
47715;SDS011;33476;50.984;3.538;2024-02-04T07:48:18;5.10;;;0.90;;
47715;SDS011;33476;50.984;3.538;2024-02-04T07:50:44;7.57;;;0.57;;
47715;SDS011;33476;50.984;3.538;2024-02-04T07:53:10;2.25;;;0.40;;
47715;SDS011;33476;50.984;3.538;2024-02-04T07:55:35;4.43;;;0.55;;
47715;SDS011;33476;50.984;3.538;2024-02-04T07:58:01;5.15;;;1.00;;
47715;SDS011;33476;50.984;3.538;2024-02-04T08:00:26;5.80;;;0.90;;
47715;SDS011;33476;50.984;3.538;2024-02-04T08:02:52;5.72;;;0.88;;
47715;SDS011;33476;50.984;3.538;2024-02-04T08:05:17;5.28;;;1.63;;
47715;SDS011;33476;50.984;3.538;2024-02-04T08:07:42;8.23;;;1.60;;
47715;SDS011;33476;50.984;3.538;2024-02-04T08:10:08;5.72;;;1.48;;
47715;SDS011;33476;50.984;3.538;2024-02-04T08:12:34;6.45;;;1.65;;
47715;SDS011;33476;50.984;3.538;2024-02-04T08:15:00;6.80;;;1.73;;
47715;SDS011;33476;50.984;3.538;2024-02-04T08:17:25;8.70;;;1.60;;
47715;SDS011;33476;50.984;3.538;2024-02-04T08:19:51;5.50;;;1.30;;
47715;SDS011;33476;50.984;3.538;2024-02-04T08:22:16;5.68;;;1.17;;
47715;SDS011;33476;50.984;3.538;2024-02-04T08:24:43;7.40;;;1.23;;
47715;SDS011;33476;50.984;3.538;2024-02-04T08:27:08;8.73;;;1.42;;
47715;SDS011;33476;50.984;3.538;2024-02-04T08:29:34;5.10;;;1.27;;
47715;SDS011;33476;50.984;3.538;2024-02-04T08:31:59;10.93;;;1.58;;
47715;SDS011;33476;50.984;3.538;2024-02-04T08:34:25;5.85;;;1.33;;
47715;SDS011;33476;50.984;3.538;2024-02-04T08:36:51;5.25;;;1.50;;
47715;SDS011;33476;50.984;3.538;2024-02-04T08:39:16;7.55;;;1.45;;
47715;SDS011;33476;50.984;3.538;2024-02-04T08:41:42;7.57;;;1.52;;
47715;SDS011;33476;50.984;3.538;2024-02-04T08:44:07;6.28;;;1.70;;
47715;SDS011;33476;50.984;3.538;2024-02-04T08:46:32;9.13;;;1.88;;
47715;SDS011;33476;50.984;3.538;2024-02-04T08:48:58;9.68;;;1.60;;
47715;SDS011;33476;50.984;3.538;2024-02-04T08:51:23;6.60;;;1.30;;
47715;SDS011;33476;50.984;3.538;2024-02-04T08:53:49;6.63;;;1.33;;
47715;SDS011;33476;50.984;3.538;2024-02-04T08:56:14;5.88;;;1.02;;
47715;SDS011;33476;50.984;3.538;2024-02-04T08:58:39;8.30;;;0.73;;
47715;SDS011;33476;50.984;3.538;2024-02-04T09:01:05;7.20;;;0.85;;
47715;SDS011;33476;50.984;3.538;2024-02-04T09:03:30;5.20;;;1.27;;
47715;SDS011;33476;50.984;3.538;2024-02-04T09:05:56;8.05;;;0.90;;
47715;SDS011;33476;50.984;3.538;2024-02-04T09:08:22;6.72;;;0.90;;
47715;SDS011;33476;50.984;3.538;2024-02-04T09:10:48;11.10;;;1.15;;
47715;SDS011;33476;50.984;3.538;2024-02-04T09:13:13;6.63;;;0.70;;
47715;SDS011;33476;50.984;3.538;2024-02-04T09:15:38;8.68;;;0.70;;
47715;SDS011;33476;50.984;3.538;2024-02-04T09:18:04;4.43;;;0.82;;
47715;SDS011;33476;50.984;3.538;2024-02-04T09:20:29;4.47;;;0.63;;
47715;SDS011;33476;50.984;3.538;2024-02-04T09:22:55;6.18;;;0.80;;
47715;SDS011;33476;50.984;3.538;2024-02-04T09:25:20;6.35;;;0.68;;
47715;SDS011;33476;50.984;3.538;2024-02-04T09:27:46;5.43;;;0.80;;
47715;SDS011;33476;50.984;3.538;2024-02-04T09:30:11;4.25;;;0.73;;
47715;SDS011;33476;50.984;3.538;2024-02-04T09:32:37;4.22;;;0.47;;
47715;SDS011;33476;50.984;3.538;2024-02-04T09:35:03;5.18;;;0.40;;
47715;SDS011;33476;50.984;3.538;2024-02-04T09:37:28;3.92;;;0.57;;
47715;SDS011;33476;50.984;3.538;2024-02-04T09:39:54;3.85;;;0.55;;
47715;SDS011;33476;50.984;3.538;2024-02-04T09:42:20;5.25;;;0.82;;
47715;SDS011;33476;50.984;3.538;2024-02-04T09:44:49;7.80;;;1.08;;
47715;SDS011;33476;50.984;3.538;2024-02-04T09:47:15;3.85;;;0.45;;
47715;SDS011;33476;50.984;3.538;2024-02-04T09:49:41;4.78;;;0.80;;
47715;SDS011;33476;50.984;3.538;2024-02-04T09:52:08;9.95;;;1.00;;
47715;SDS011;33476;50.984;3.538;2024-02-04T09:54:44;4.28;;;0.95;;
47715;SDS011;33476;50.984;3.538;2024-02-04T09:57:11;5.28;;;0.80;;
47715;SDS011;33476;50.984;3.538;2024-02-04T09:59:37;6.07;;;1.08;;
47715;SDS011;33476;50.984;3.538;2024-02-04T10:02:03;6.50;;;0.80;;
47715;SDS011;33476;50.984;3.538;2024-02-04T10:04:29;6.20;;;0.77;;
47715;SDS011;33476;50.984;3.538;2024-02-04T10:06:55;5.03;;;0.82;;
47715;SDS011;33476;50.984;3.538;2024-02-04T10:09:20;4.35;;;0.60;;
47715;SDS011;33476;50.984;3.538;2024-02-04T10:11:46;6.80;;;0.80;;
47715;SDS011;33476;50.984;3.538;2024-02-04T10:14:11;5.15;;;0.75;;
47715;SDS011;33476;50.984;3.538;2024-02-04T10:16:37;5.55;;;0.60;;
47715;SDS011;33476;50.984;3.538;2024-02-04T10:19:03;4.43;;;0.85;;
47715;SDS011;33476;50.984;3.538;2024-02-04T10:21:28;7.03;;;0.85;;
47715;SDS011;33476;50.984;3.538;2024-02-04T10:23:53;10.90;;;0.70;;
47715;SDS011;33476;50.984;3.538;2024-02-04T10:26:20;4.28;;;0.40;;
47715;SDS011;33476;50.984;3.538;2024-02-04T10:28:46;5.85;;;0.82;;
47715;SDS011;33476;50.984;3.538;2024-02-04T10:31:12;4.75;;;0.65;;
47715;SDS011;33476;50.984;3.538;2024-02-04T10:33:38;2.60;;;0.80;;
47715;SDS011;33476;50.984;3.538;2024-02-04T10:36:04;8.02;;;1.17;;
47715;SDS011;33476;50.984;3.538;2024-02-04T10:38:30;4.65;;;0.90;;
47715;SDS011;33476;50.984;3.538;2024-02-04T10:40:56;6.10;;;1.40;;
47715;SDS011;33476;50.984;3.538;2024-02-04T10:43:25;7.18;;;1.15;;
47715;SDS011;33476;50.984;3.538;2024-02-04T10:46:22;5.10;;;0.98;;
47715;SDS011;33476;50.984;3.538;2024-02-04T10:48:57;5.50;;;1.08;;
47715;SDS011;33476;50.984;3.538;2024-02-04T10:51:26;6.45;;;1.00;;
47715;SDS011;33476;50.984;3.538;2024-02-04T10:53:53;9.32;;;1.13;;
47715;SDS011;33476;50.984;3.538;2024-02-04T10:56:32;2.28;;;0.85;;
47715;SDS011;33476;50.984;3.538;2024-02-04T10:59:03;5.75;;;0.70;;
47715;SDS011;33476;50.984;3.538;2024-02-04T11:01:30;9.05;;;1.08;;
47715;SDS011;33476;50.984;3.538;2024-02-04T11:03:57;6.68;;;1.15;;
47715;SDS011;33476;50.984;3.538;2024-02-04T11:06:24;6.47;;;0.60;;
47715;SDS011;33476;50.984;3.538;2024-02-04T11:08:51;9.40;;;1.08;;
47715;SDS011;33476;50.984;3.538;2024-02-04T11:11:21;7.07;;;0.80;;
47715;SDS011;33476;50.984;3.538;2024-02-04T11:13:49;4.78;;;1.10;;
47715;SDS011;33476;50.984;3.538;2024-02-04T11:19:36;7.15;;;0.70;;
47715;SDS011;33476;50.984;3.538;2024-02-04T11:27:41;6.75;;;0.70;;
47715;SDS011;33476;50.984;3.538;2024-02-04T11:30:07;8.90;;;0.57;;
47715;SDS011;33476;50.984;3.538;2024-02-04T11:32:35;2.80;;;0.50;;
47715;SDS011;33476;50.984;3.538;2024-02-04T11:35:01;4.65;;;0.77;;
47715;SDS011;33476;50.984;3.538;2024-02-04T11:37:27;7.90;;;0.73;;
47715;SDS011;33476;50.984;3.538;2024-02-04T11:39:54;4.47;;;0.70;;
47715;SDS011;33476;50.984;3.538;2024-02-04T11:42:25;5.65;;;0.90;;
47715;SDS011;33476;50.984;3.538;2024-02-04T11:45:08;5.68;;;1.00;;
47715;SDS011;33476;50.984;3.538;2024-02-04T11:47:36;4.78;;;0.73;;
47715;SDS011;33476;50.984;3.538;2024-02-04T11:50:02;8.50;;;0.52;;
47715;SDS011;33476;50.984;3.538;2024-02-04T11:52:28;7.65;;;0.70;;
47715;SDS011;33476;50.984;3.538;2024-02-04T11:54:54;4.18;;;0.63;;
47715;SDS011;33476;50.984;3.538;2024-02-04T11:57:19;3.22;;;0.50;;
47715;SDS011;33476;50.984;3.538;2024-02-04T11:59:46;6.63;;;0.63;;
47715;SDS011;33476;50.984;3.538;2024-02-04T12:02:12;7.63;;;0.60;;
47715;SDS011;33476;50.984;3.538;2024-02-04T12:04:40;7.05;;;0.55;;
47715;SDS011;33476;50.984;3.538;2024-02-04T12:07:06;3.80;;;0.35;;
47715;SDS011;33476;50.984;3.538;2024-02-04T12:09:33;2.42;;;0.55;;
47715;SDS011;33476;50.984;3.538;2024-02-04T12:12:00;6.88;;;0.57;;
47715;SDS011;33476;50.984;3.538;2024-02-04T12:14:26;2.65;;;0.52;;
47715;SDS011;33476;50.984;3.538;2024-02-04T12:16:52;6.15;;;0.55;;
47715;SDS011;33476;50.984;3.538;2024-02-04T12:19:17;5.38;;;0.93;;
47715;SDS011;33476;50.984;3.538;2024-02-04T12:21:43;6.93;;;0.90;;
47715;SDS011;33476;50.984;3.538;2024-02-04T12:24:08;5.78;;;0.85;;
47715;SDS011;33476;50.984;3.538;2024-02-04T12:26:34;5.75;;;0.80;;
47715;SDS011;33476;50.984;3.538;2024-02-04T12:29:00;3.45;;;1.02;;
47715;SDS011;33476;50.984;3.538;2024-02-04T12:31:26;6.60;;;0.90;;
47715;SDS011;33476;50.984;3.538;2024-02-04T12:33:57;3.30;;;0.90;;
47715;SDS011;33476;50.984;3.538;2024-02-04T12:36:24;7.72;;;0.88;;
47715;SDS011;33476;50.984;3.538;2024-02-04T12:38:52;6.93;;;1.02;;
47715;SDS011;33476;50.984;3.538;2024-02-04T12:41:24;5.55;;;1.30;;
47715;SDS011;33476;50.984;3.538;2024-02-04T12:43:56;6.05;;;1.85;;
47715;SDS011;33476;50.984;3.538;2024-02-04T12:46:27;5.13;;;1.27;;
47715;SDS011;33476;50.984;3.538;2024-02-04T12:48:56;4.85;;;1.70;;
47715;SDS011;33476;50.984;3.538;2024-02-04T12:51:32;5.72;;;1.10;;
47715;SDS011;33476;50.984;3.538;2024-02-04T12:54:06;2.13;;;0.60;;
47715;SDS011;33476;50.984;3.538;2024-02-04T12:56:52;6.38;;;1.05;;
47715;SDS011;33476;50.984;3.538;2024-02-04T13:02:00;5.40;;;1.23;;
47715;SDS011;33476;50.984;3.538;2024-02-04T13:04:26;4.97;;;1.45;;
47715;SDS011;33476;50.984;3.538;2024-02-04T13:07:02;10.10;;;1.20;;
47715;SDS011;33476;50.984;3.538;2024-02-04T13:09:32;10.93;;;1.35;;
47715;SDS011;33476;50.984;3.538;2024-02-04T13:12:04;7.10;;;1.27;;
47715;SDS011;33476;50.984;3.538;2024-02-04T13:14:31;9.38;;;1.48;;
47715;SDS011;33476;50.984;3.538;2024-02-04T13:16:57;9.77;;;1.10;;
47715;SDS011;33476;50.984;3.538;2024-02-04T13:19:22;10.98;;;1.30;;
47715;SDS011;33476;50.984;3.538;2024-02-04T13:21:48;8.55;;;1.50;;
47715;SDS011;33476;50.984;3.538;2024-02-04T13:24:13;12.95;;;1.40;;
47715;SDS011;33476;50.984;3.538;2024-02-04T13:26:39;12.23;;;1.88;;
47715;SDS011;33476;50.984;3.538;2024-02-04T13:29:04;16.15;;;2.08;;
47715;SDS011;33476;50.984;3.538;2024-02-04T13:31:30;10.68;;;1.33;;
47715;SDS011;33476;50.984;3.538;2024-02-04T13:33:56;9.23;;;2.03;;
47715;SDS011;33476;50.984;3.538;2024-02-04T13:36:22;9.70;;;1.15;;
47715;SDS011;33476;50.984;3.538;2024-02-04T13:38:48;12.43;;;1.13;;
47715;SDS011;33476;50.984;3.538;2024-02-04T13:41:13;9.98;;;1.45;;
47715;SDS011;33476;50.984;3.538;2024-02-04T13:43:38;12.10;;;0.90;;
47715;SDS011;33476;50.984;3.538;2024-02-04T13:46:04;8.38;;;1.17;;
47715;SDS011;33476;50.984;3.538;2024-02-04T13:48:30;6.55;;;0.70;;
47715;SDS011;33476;50.984;3.538;2024-02-04T13:50:55;8.38;;;1.20;;
47715;SDS011;33476;50.984;3.538;2024-02-04T13:53:21;6.38;;;1.27;;
47715;SDS011;33476;50.984;3.538;2024-02-04T13:55:47;10.45;;;1.33;;
47715;SDS011;33476;50.984;3.538;2024-02-04T13:58:13;14.93;;;0.80;;
47715;SDS011;33476;50.984;3.538;2024-02-04T14:00:39;10.82;;;1.00;;
47715;SDS011;33476;50.984;3.538;2024-02-04T14:03:05;11.32;;;1.58;;
47715;SDS011;33476;50.984;3.538;2024-02-04T14:05:31;12.60;;;1.45;;
47715;SDS011;33476;50.984;3.538;2024-02-04T14:07:57;13.27;;;1.27;;
47715;SDS011;33476;50.984;3.538;2024-02-04T14:10:22;8.38;;;1.10;;
47715;SDS011;33476;50.984;3.538;2024-02-04T14:12:48;18.80;;;1.70;;
47715;SDS011;33476;50.984;3.538;2024-02-04T14:15:13;10.50;;;1.00;;
47715;SDS011;33476;50.984;3.538;2024-02-04T14:17:39;11.43;;;1.10;;
47715;SDS011;33476;50.984;3.538;2024-02-04T14:20:05;10.63;;;1.00;;
47715;SDS011;33476;50.984;3.538;2024-02-04T14:22:31;11.65;;;1.45;;
47715;SDS011;33476;50.984;3.538;2024-02-04T14:24:57;10.07;;;1.17;;
47715;SDS011;33476;50.984;3.538;2024-02-04T14:27:22;8.93;;;1.00;;
47715;SDS011;33476;50.984;3.538;2024-02-04T14:29:48;10.57;;;1.40;;
47715;SDS011;33476;50.984;3.538;2024-02-04T14:32:13;12.65;;;1.35;;
47715;SDS011;33476;50.984;3.538;2024-02-04T14:34:39;13.82;;;1.55;;
47715;SDS011;33476;50.984;3.538;2024-02-04T14:37:04;11.45;;;1.30;;
47715;SDS011;33476;50.984;3.538;2024-02-04T14:39:30;10.88;;;0.95;;
47715;SDS011;33476;50.984;3.538;2024-02-04T14:41:58;8.63;;;1.27;;
47715;SDS011;33476;50.984;3.538;2024-02-04T14:44:24;10.65;;;0.77;;
47715;SDS011;33476;50.984;3.538;2024-02-04T14:46:49;12.63;;;1.55;;
47715;SDS011;33476;50.984;3.538;2024-02-04T14:49:15;12.85;;;1.25;;
47715;SDS011;33476;50.984;3.538;2024-02-04T14:51:40;11.15;;;0.80;;